Acton, Maine
Current Conditions -  °F | °C
As of 9:15 AM on Wednesday 28 Jan 2015 (Local Time) from KSFM Reporting Station
Overcast Overcast  
Wind Chill: -15°   Ceiling: 200
Heat Index: -8°   Visibility: 7mi
Dew Point: -17°   Wind: 10mph
Humidity: 49%   Direction: 330°NNW
Pressure: 29.89"   Gusts: NA
Location:  43.53°N, 70.91°W
Report Text: KSFM 281415Z AUTO 33009KT 7SM BKN002 OVC042 M08/M17 A2989 RMK AO1
Loading
Personal Weather Stations






























Interactive Weather Map New forecast layout! Learn more

10-Day Weather Forecast

Advertisements
Track Severe Weather on mobile